Time;durP1;ratioP1;P1;durP2;ratioP2;P2;SDS_P1;SDS_P2;PMS_P1;PMS_P2;Temp;Humidity;BMP_temperature;BMP_pressure;BME280_temperature;BME280_humidity;BME280_pressure;Samples;Min_cycle;Max_cycle;Signal;HPM_P1;HPM_P2
2021/05/15 00:02:43;;;;;;;12.43;8.60;;;;;;;11.55;96.74;100501.56;6337499;28;20378;-69
2021/05/15 00:05:47;;;;;;;12.07;7.80;;;;;;;11.55;96.63;100496.09;6337032;28;20277;-69
2021/05/15 00:08:50;;;;;;;15.68;9.18;;;;;;;11.48;96.79;100500.84;6338134;28;20182;-69
2021/05/15 00:11:53;;;;;;;16.13;8.45;;;;;;;11.41;97.78;100495.44;6337043;28;20470;-69
2021/05/15 00:14:55;;;;;;;14.10;8.52;;;;;;;11.38;97.45;100500.53;6338041;28;20214;-69
2021/05/15 00:17:57;;;;;;;15.02;8.40;;;;;;;11.40;97.79;100506.63;6337972;28;20183;-69
2021/05/15 00:21:01;;;;;;;15.02;8.70;;;;;;;11.60;96.58;100494.34;6338057;28;20183;-70
2021/05/15 00:24:04;;;;;;;14.02;8.70;;;;;;;11.56;96.33;100495.03;6337706;28;20210;-70
2021/05/15 00:27:06;;;;;;;19.52;8.35;;;;;;;11.50;96.65;100494.06;6337788;28;20186;-70
2021/05/15 00:30:13;;;;;;;12.30;8.23;;;;;;;11.46;97.24;100492.00;6338058;28;20182;-70
2021/05/15 00:33:17;;;;;;;15.48;8.85;;;;;;;11.29;98.67;100487.22;6336582;28;20496;-70
2021/05/15 00:36:20;;;;;;;17.40;9.25;;;;;;;11.32;98.53;100480.44;6337765;28;20182;-70
2021/05/15 00:39:23;;;;;;;15.90;8.60;;;;;;;11.22;99.51;100480.97;6336772;28;20255;-71
2021/05/15 00:42:26;;;;;;;16.90;8.45;;;;;;;11.20;100.00;100472.19;6336446;28;20501;-70
2021/05/15 00:45:28;;;;;;;16.20;9.07;;;;;;;11.22;100.00;100474.72;6337752;28;20182;-71
2021/05/15 00:48:30;;;;;;;16.40;8.32;;;;;;;11.20;100.00;100472.19;6337756;28;20190;-71
2021/05/15 00:51:34;;;;;;;22.88;8.93;;;;;;;11.18;100.00;100479.78;6336738;28;20253;-71
2021/05/15 00:54:38;;;;;;;17.33;9.32;;;;;;;11.11;100.00;100476.31;6336258;28;20247;-70
2021/05/15 00:57:41;;;;;;;19.70;8.90;;;;;;;11.10;100.00;100477.34;6343743;28;20189;-70
2021/05/15 01:00:43;;;;;;;11.20;8.30;;;;;;;11.02;100.00;100480.41;6345763;28;20186;-69
2021/05/15 01:03:46;;;;;;;14.02;8.82;;;;;;;11.03;100.00;100468.44;6345009;28;20274;-70
2021/05/15 01:06:49;;;;;;;21.95;9.90;;;;;;;11.03;100.00;100465.69;6344519;28;20477;-70
2021/05/15 01:09:52;;;;;;;16.90;9.27;;;;;;;11.01;100.00;100462.38;6345528;28;20183;-70
2021/05/15 01:12:57;;;;;;;13.40;8.82;;;;;;;11.02;100.00;100464.00;6344537;28;20592;-70
2021/05/15 01:16:00;;;;;;;19.55;8.57;;;;;;;11.04;100.00;100461.06;6344695;28;20186;-70
2021/05/15 01:19:04;;;;;;;15.88;9.40;;;;;;;10.91;100.00;100450.31;6345818;28;20200;-69
2021/05/15 01:22:08;;;;;;;15.63;9.27;;;;;;;10.83;100.00;100459.66;6345308;28;20183;-69
2021/05/15 01:25:12;;;;;;;14.93;9.27;;;;;;;10.82;100.00;100468.88;6344677;28;20197;-69
2021/05/15 01:28:14;;;;;;;25.17;9.10;;;;;;;10.90;100.00;100460.41;6345258;28;20182;-69
2021/05/15 01:31:17;;;;;;;16.63;9.98;;;;;;;10.92;100.00;100452.81;6345629;28;20190;-70
2021/05/15 01:34:19;;;;;;;13.90;10.32;;;;;;;10.89;100.00;100458.72;6345563;28;20217;-69
2021/05/15 01:37:22;;;;;;;18.27;9.75;;;;;;;10.93;100.00;100459.09;6345615;28;20220;-69
2021/05/15 01:40:26;;;;;;;20.52;9.18;;;;;;;10.91;100.00;100453.88;6345442;28;20182;-70
2021/05/15 01:43:28;;;;;;;17.80;10.15;;;;;;;11.03;100.00;100454.78;6345446;28;20252;-70
2021/05/15 01:46:31;;;;;;;23.40;9.65;;;;;;;11.16;100.00;100456.50;6345471;28;20186;-69
2021/05/15 01:49:33;;;;;;;23.55;10.20;;;;;;;10.97;100.00;100450.22;6344316;28;20244;-70
2021/05/15 01:52:37;;;;;;;19.85;10.20;;;;;;;10.84;100.00;100444.06;6344996;28;20195;-70
2021/05/15 01:55:39;;;;;;;24.55;11.05;;;;;;;10.91;100.00;100453.88;6343945;28;20214;-69
2021/05/15 01:58:42;;;;;;;27.90;10.77;;;;;;;10.75;100.00;100440.00;6343960;28;20466;-70
2021/05/15 02:01:45;;;;;;;34.33;9.30;;;;;;;10.60;100.00;100457.59;6344235;28;20269;-70
2021/05/15 02:04:47;;;;;;;36.60;10.40;;;;;;;10.60;100.00;100443.13;6343863;28;20528;-70
2021/05/15 02:07:51;;;;;;;28.25;10.93;;;;;;;10.59;100.00;100444.16;6341934;28;20194;-69
2021/05/15 02:10:56;;;;;;;21.88;10.43;;;;;;;10.71;100.00;100434.16;6341176;28;20258;-69
2021/05/15 02:13:58;;;;;;;24.25;10.90;;;;;;;10.71;100.00;100439.59;6339966;28;20247;-69
2021/05/15 02:17:01;;;;;;;28.60;10.98;;;;;;;10.62;100.00;100439.09;6340851;28;20188;-69
2021/05/15 02:20:04;;;;;;;24.90;10.45;;;;;;;10.63;100.00;100442.66;6339583;28;20499;-69
2021/05/15 02:23:07;;;;;;;38.97;11.05;;;;;;;10.63;100.00;100437.22;6340806;28;20210;-69
2021/05/15 02:26:10;;;;;;;31.85;11.07;;;;;;;10.58;100.00;100447.94;6339749;28;20199;-69
2021/05/15 02:29:13;;;;;;;18.63;11.07;;;;;;;10.82;100.00;100438.03;6340515;28;20214;-69
2021/05/15 02:32:16;;;;;;;19.67;11.02;;;;;;;10.81;100.00;100434.44;6340740;28;20191;-70
2021/05/15 02:35:19;;;;;;;22.90;11.23;;;;;;;10.66;100.00;100442.19;6339505;28;20189;-69
2021/05/15 02:38:22;;;;;;;24.83;11.15;;;;;;;10.71;100.00;100438.81;6339637;28;20189;-69
2021/05/15 02:41:25;;;;;;;24.08;11.63;;;;;;;10.56;100.00;100436.44;6340335;28;20258;-69
2021/05/15 02:44:27;;;;;;;23.35;11.13;;;;;;;10.51;100.00;100439.84;6339360;28;20248;-69
2021/05/15 02:47:30;;;;;;;22.23;11.68;;;;;;;10.56;100.00;100436.44;6339047;28;20214;-69
2021/05/15 02:50:33;;;;;;;18.92;9.98;;;;;;;10.59;100.00;100419.63;6340292;28;20183;-69
2021/05/15 02:53:36;;;;;;;17.75;10.27;;;;;;;10.72;100.00;100433.09;6340225;28;20186;-69
2021/05/15 02:56:39;;;;;;;17.67;10.02;;;;;;;10.62;100.00;100438.25;6339772;28;20191;-69
2021/05/15 02:59:41;;;;;;;18.30;10.32;;;;;;;10.54;100.00;100449.47;6338662;28;20401;-69
2021/05/15 03:02:43;;;;;;;22.55;10.45;;;;;;;10.67;100.00;100430.22;6339119;28;20433;-69
2021/05/15 03:05:46;;;;;;;23.48;9.93;;;;;;;10.55;100.00;100432.06;6338538;28;20527;-69
2021/05/15 03:08:50;;;;;;;18.73;10.77;;;;;;;10.58;100.00;100428.84;6339145;28;20183;-69
2021/05/15 03:11:52;;;;;;;19.90;10.85;;;;;;;10.47;100.00;100422.28;6339830;28;20251;-69
2021/05/15 03:14:55;;;;;;;23.63;10.48;;;;;;;10.50;100.00;100437.34;6339364;28;20194;-69
2021/05/15 03:17:57;;;;;;;23.95;10.75;;;;;;;10.61;100.00;100428.41;6339404;28;20190;-69
2021/05/15 03:20:59;;;;;;;19.67;10.75;;;;;;;10.69;100.00;100425.38;6336460;28;20528;-69
2021/05/15 03:24:04;;;;;;;20.52;11.02;;;;;;;10.76;100.00;100428.84;6338693;28;20272;-69
2021/05/15 03:27:06;;;;;;;20.58;11.57;;;;;;;10.68;100.00;100429.19;6338091;28;20474;-69
2021/05/15 03:30:11;;;;;;;22.75;12.15;;;;;;;10.71;100.00;100427.88;6338924;28;20221;-69
2021/05/15 03:33:14;;;;;;;20.92;11.40;;;;;;;10.80;100.00;100429.25;6339287;28;20193;-69
2021/05/15 03:36:17;;;;;;;18.20;10.40;;;;;;;10.82;100.00;100436.13;6338901;28;20187;-69
2021/05/15 03:39:20;;;;;;;21.48;11.63;;;;;;;10.80;100.00;100432.81;6339086;28;20257;-69
2021/05/15 03:42:22;;;;;;;29.40;12.15;;;;;;;10.69;100.00;100425.38;6339052;28;20183;-69
2021/05/15 03:45:25;;;;;;;14.27;10.20;;;;;;;10.52;100.00;100425.16;6337594;28;20378;-70
2021/05/15 03:48:28;;;;;;;19.33;11.45;;;;;;;10.58;100.00;100423.38;6338890;28;20220;-70
2021/05/15 03:51:30;;;;;;;21.25;12.25;;;;;;;10.74;100.00;100435.59;6338854;28;20214;-70
2021/05/15 03:54:33;;;;;;;26.25;12.75;;;;;;;10.75;100.00;100438.13;6337307;28;20488;-70
2021/05/15 03:57:36;;;;;;;25.48;12.85;;;;;;;10.63;100.00;100431.75;6338751;28;20229;-70
2021/05/15 04:00:39;;;;;;;27.05;13.32;;;;;;;10.69;100.00;100428.09;6337306;28;20237;-70
2021/05/15 04:03:42;;;;;;;24.67;12.75;;;;;;;10.79;100.00;100414.75;6344217;28;20265;-70
2021/05/15 04:06:44;;;;;;;26.40;13.63;;;;;;;10.87;100.00;100422.63;6363816;28;20227;-70
2021/05/15 04:09:47;;;;;;;22.60;11.80;;;;;;;10.78;99.87;100410.38;6363406;28;20183;-70
2021/05/15 04:12:53;;;;;;;23.60;11.85;;;;;;;10.77;100.00;100422.34;6363470;28;20260;-70
2021/05/15 04:15:58;;;;;;;30.73;12.70;;;;;;;10.62;100.00;100413.72;6363622;28;20214;-70
2021/05/15 04:19:00;;;;;;;28.23;13.18;;;;;;;10.68;100.00;100419.06;6363253;28;20196;-70
2021/05/15 04:22:04;;;;;;;30.88;13.43;;;;;;;10.69;100.00;100419.91;6363096;28;20227;-70
2021/05/15 04:25:08;;;;;;;24.95;12.65;;;;;;;10.78;100.00;100421.28;6361933;28;20350;-69
2021/05/15 04:28:14;;;;;;;28.05;13.48;;;;;;;10.76;100.00;100415.19;6361956;28;20429;-70
2021/05/15 04:31:16;;;;;;;27.38;13.95;;;;;;;10.78;100.00;100423.19;6362872;28;20182;-69
2021/05/15 04:34:19;;;;;;;28.48;14.40;;;;;;;10.84;100.00;100422.25;6362822;28;20217;-70
2021/05/15 04:37:21;;;;;;;28.08;13.85;;;;;;;10.86;100.00;100420.97;6361799;28;20356;-69
2021/05/15 04:40:25;;;;;;;26.48;13.43;;;;;;;10.78;100.00;100413.09;6343985;28;20356;-70
2021/05/15 04:43:28;;;;;;;20.73;12.27;;;;;;;10.73;100.00;100414.84;6363110;28;20210;-70
2021/05/15 04:46:30;;;;;;;18.23;11.73;;;;;;;10.82;99.17;100417.03;6361731;28;20473;-70
2021/05/15 04:49:33;;;;;;;17.95;12.23;;;;;;;10.97;98.43;100414.75;6361686;28;20523;-70
2021/05/15 04:52:35;;;;;;;16.25;12.13;;;;;;;10.89;98.50;100420.50;6362658;28;20182;-70
2021/05/15 04:55:38;;;;;;;17.70;12.55;;;;;;;10.87;97.64;100417.19;6361552;28;20186;-70
2021/05/15 04:58:41;;;;;;;19.52;12.68;;;;;;;10.86;98.32;100410.03;6362805;28;20227;-70
2021/05/15 05:01:43;;;;;;;17.70;13.07;;;;;;;11.08;97.04;100405.78;6362642;28;20197;-70
2021/05/15 05:04:47;;;;;;;15.48;10.18;;;;;;;11.23;95.88;100414.38;6361448;28;20418;-71
2021/05/15 05:07:51;;;;;;;12.88;10.02;;;;;;;11.32;95.30;100410.25;6362509;28;20220;-70
2021/05/15 05:10:55;;;;;;;20.05;13.75;;;;;;;11.27;94.66;100417.50;6362481;28;20204;-70
2021/05/15 05:13:57;;;;;;;19.63;12.60;;;;;;;11.38;94.78;100411.22;6362768;28;20193;-69
2021/05/15 05:17:00;;;;;;;22.27;13.48;;;;;;;11.51;94.89;100418.38;6362751;28;20192;-70
2021/05/15 05:20:03;;;;;;;21.35;13.15;;;;;;;11.53;94.39;100406.16;6361272;28;20474;-70
2021/05/15 05:23:06;;;;;;;18.77;13.05;;;;;;;11.44;94.86;100406.75;6362511;28;20189;-70
2021/05/15 05:26:11;;;;;;;19.33;12.00;;;;;;;11.36;95.24;100407.06;6361647;28;20186;-70
2021/05/15 05:29:13;;;;;;;19.80;12.55;;;;;;;11.38;95.28;100407.66;6362777;28;20265;-70
2021/05/15 05:32:16;;;;;;;19.98;12.93;;;;;;;11.27;95.81;100399.19;6361261;28;20186;-70
2021/05/15 05:35:20;;;;;;;19.25;11.68;;;;;;;11.35;95.82;100408.16;6362111;28;20193;-70
2021/05/15 05:38:22;;;;;;;21.10;12.57;;;;;;;11.35;95.82;100400.75;6361096;28;20370;-70
2021/05/15 05:41:26;;;;;;;19.63;12.15;;;;;;;11.49;95.66;100398.69;6361001;28;20562;-70
2021/05/15 05:44:28;;;;;;;20.05;12.57;;;;;;;11.45;95.37;100408.41;6365134;28;20244;-70
2021/05/15 05:47:30;;;;;;;16.85;11.65;;;;;;;11.52;95.78;100403.69;6365781;28;20436;-70
2021/05/15 05:50:33;;;;;;;15.63;10.75;;;;;;;11.63;95.61;100405.63;6367148;28;20245;-71
2021/05/15 05:53:36;;;;;;;19.25;11.63;;;;;;;11.81;94.06;100402.84;6366749;28;20231;-70
2021/05/15 05:56:39;;;;;;;20.92;12.65;;;;;;;11.61;94.80;100408.56;6366868;28;20261;-70
2021/05/15 05:59:42;;;;;;;17.98;11.68;;;;;;;11.49;95.39;100421.38;6365471;28;20227;-70
2021/05/15 06:02:44;;;;;;;21.95;12.35;;;;;;;11.55;95.12;100425.06;6365807;28;20524;-70
2021/05/15 06:05:47;;;;;;;22.80;13.18;;;;;;;11.56;94.81;100415.78;6366363;28;20210;-70
2021/05/15 06:08:50;;;;;;;20.13;12.52;;;;;;;11.66;94.52;100416.06;6366653;28;20198;-70
2021/05/15 06:11:53;;;;;;;20.50;12.75;;;;;;;11.67;94.53;100415.00;6366547;28;20189;-70
2021/05/15 06:14:56;;;;;;;16.77;11.00;;;;;;;11.77;94.62;100424.31;6366465;28;20193;-70
2021/05/15 06:17:58;;;;;;;10.55;8.45;;;;;;;11.89;93.22;100416.13;6366401;28;20182;-70
2021/05/15 06:21:01;;;;;;;13.18;8.88;;;;;;;11.94;93.53;100424.44;6365656;28;20218;-70
2021/05/15 06:24:04;;;;;;;10.70;8.18;;;;;;;12.03;92.95;100417.59;6366107;28;20209;-70
2021/05/15 06:27:08;;;;;;;8.20;7.35;;;;;;;12.07;92.82;100412.50;6365830;28;20182;-70
2021/05/15 06:30:11;;;;;;;7.80;7.10;;;;;;;12.12;92.03;100416.16;6364629;28;20182;-70
2021/05/15 06:33:18;;;;;;;7.85;6.72;;;;;;;12.17;91.51;100429.13;6364744;28;20303;-70
2021/05/15 06:36:20;;;;;;;7.70;6.90;;;;;;;12.19;90.54;100427.00;6364444;28;20182;-70
2021/05/15 06:39:23;;;;;;;7.65;7.05;;;;;;;12.15;90.77;100423.88;6364302;28;20183;-70
2021/05/15 06:42:26;;;;;;;8.40;7.10;;;;;;;12.23;90.55;100423.53;6365462;28;20196;-70
2021/05/15 06:45:29;;;;;;;8.13;6.82;;;;;;;12.18;91.35;100426.16;6365616;28;20214;-70
2021/05/15 06:48:31;;;;;;;8.07;7.38;;;;;;;12.06;92.00;100421.75;6364396;28;20529;-70
2021/05/15 06:51:34;;;;;;;9.18;8.15;;;;;;;11.98;92.65;100422.94;6365597;28;20214;-70
2021/05/15 06:54:36;;;;;;;8.70;7.80;;;;;;;12.05;92.81;100420.91;6364840;28;20186;-70
2021/05/15 06:57:39;;;;;;;8.48;7.68;;;;;;;12.10;92.68;100423.75;6364903;28;20186;-70
2021/05/15 07:00:42;;;;;;;9.05;7.85;;;;;;;12.22;92.18;100421.84;6364893;28;20257;-70
2021/05/15 07:03:44;;;;;;;8.35;7.55;;;;;;;12.33;91.44;100434.72;6364252;28;20243;-70
2021/05/15 07:06:48;;;;;;;8.82;7.75;;;;;;;12.37;90.98;100432.34;6365164;28;20245;-70
2021/05/15 07:09:51;;;;;;;8.90;7.97;;;;;;;12.42;91.06;100438.78;6363736;28;20555;-69
2021/05/15 07:12:55;;;;;;;8.38;7.47;;;;;;;12.40;91.25;100432.69;6363710;28;20347;-69
2021/05/15 07:16:09;;;;;;;8.18;7.38;;;;;;;12.42;89.97;100422.34;6365014;28;20186;-70
2021/05/15 07:19:15;;;;;;;7.90;7.20;;;;;;;12.52;89.45;100436.25;6363952;28;20182;-69
2021/05/15 07:22:18;;;;;;;7.88;7.03;;;;;;;12.54;88.67;100442.31;6364808;28;20214;-70
2021/05/15 07:25:20;;;;;;;7.80;6.72;;;;;;;12.65;88.72;100442.56;6364344;28;20284;-70
2021/05/15 07:28:23;;;;;;;8.00;7.07;;;;;;;12.65;89.00;100442.56;6364540;28;20257;-70
2021/05/15 07:31:26;;;;;;;7.80;7.00;;;;;;;12.56;89.79;100442.91;6363317;28;20186;-70
2021/05/15 07:34:28;;;;;;;7.22;6.57;;;;;;;12.53;89.23;100446.13;6364186;28;20192;-71
2021/05/15 07:37:30;;;;;;;5.85;5.45;;;;;;;12.66;88.52;100445.03;6364515;28;20245;-70
2021/05/15 07:40:33;;;;;;;5.93;5.53;;;;;;;12.52;89.56;100441.75;6364432;28;20182;-70
2021/05/15 07:43:37;;;;;;;5.72;5.43;;;;;;;12.71;88.17;100442.41;6364178;28;20181;-70
2021/05/15 07:46:40;;;;;;;6.10;5.70;;;;;;;12.73;88.58;100444.94;6364261;28;20224;-70
2021/05/15 07:49:42;;;;;;;5.50;5.20;;;;;;;12.69;89.47;100451.94;6364267;28;20250;-70
2021/05/15 07:52:45;;;;;;;5.57;5.15;;;;;;;12.79;89.31;100450.25;6363026;28;20250;-70
2021/05/15 07:55:49;;;;;;;6.07;5.68;;;;;;;12.69;88.30;100449.19;6363918;28;20194;-70
2021/05/15 07:58:52;;;;;;;4.85;4.55;;;;;;;12.97;87.22;100446.53;6363591;28;20244;-70
2021/05/15 08:01:55;;;;;;;4.90;4.60;;;;;;;13.12;85.66;100455.13;6362589;28;20211;-70
2021/05/15 08:04:58;;;;;;;4.20;4.10;;;;;;;13.11;84.89;100447.97;6361992;28;20278;-69
2021/05/15 08:08:02;;;;;;;4.55;4.32;;;;;;;13.09;85.02;100444.63;6361446;28;20375;-69
2021/05/15 08:11:05;;;;;;;4.50;4.30;;;;;;;13.07;85.82;100458.56;6363476;28;20182;-69
2021/05/15 08:14:08;;;;;;;4.25;4.15;;;;;;;13.02;85.89;100460.31;6363496;28;20193;-69
2021/05/15 08:17:13;;;;;;;3.58;3.38;;;;;;;13.09;84.80;100466.53;6363427;28;20227;-69
2021/05/15 08:20:16;;;;;;;4.28;4.07;;;;;;;13.08;85.45;100459.41;6363050;28;20188;-69
2021/05/15 08:23:19;;;;;;;4.32;4.03;;;;;;;13.07;86.03;100465.97;6361889;28;20347;-70
2021/05/15 08:26:21;;;;;;;3.80;3.70;;;;;;;13.14;85.52;100464.75;6361871;28;20206;-69
2021/05/15 08:29:25;;;;;;;3.65;3.55;;;;;;;13.15;85.28;100460.91;6363169;28;20245;-71
2021/05/15 08:32:27;;;;;;;3.05;3.05;;;;;;;13.14;85.30;100463.91;6361957;28;20410;-71
2021/05/15 08:35:30;;;;;;;3.17;3.17;;;;;;;13.18;85.56;100465.09;6361558;28;20480;-71
2021/05/15 08:38:33;;;;;;;3.17;3.17;;;;;;;13.26;85.34;100467.44;6362486;28;20190;-70
2021/05/15 08:41:35;;;;;;;3.20;3.20;;;;;;;13.15;85.75;100465.56;6344073;28;20229;-70
2021/05/15 08:44:44;;;;;;;3.20;3.20;;;;;;;13.01;86.26;100464.16;6362652;28;20277;-70
2021/05/15 08:47:46;;;;;;;3.95;3.65;;;;;;;12.96;87.37;100472.25;6361315;28;20443;-69
2021/05/15 08:50:49;;;;;;;3.70;3.60;;;;;;;13.02;87.12;100466.63;6361171;28;20557;-69
2021/05/15 08:53:52;;;;;;;3.95;3.85;;;;;;;13.05;88.22;100465.31;6362464;28;20218;-70
2021/05/15 08:56:54;;;;;;;3.83;3.72;;;;;;;13.02;87.00;100472.13;6362603;28;20220;-70
2021/05/15 08:59:58;;;;;;;4.60;4.28;;;;;;;12.95;87.40;100471.41;6362833;28;20253;-70
2021/05/15 09:03:02;;;;;;;3.97;3.88;;;;;;;13.15;87.46;100476.50;6361176;28;20233;-70
2021/05/15 09:06:07;;;;;;;4.10;3.95;;;;;;;13.22;87.93;100477.22;6361747;28;20269;-70
2021/05/15 09:09:11;;;;;;;4.30;4.20;;;;;;;13.33;86.80;100489.22;6361264;28;20182;-70
2021/05/15 09:12:14;;;;;;;4.07;3.97;;;;;;;13.38;86.99;100470.97;6362142;28;20182;-69
2021/05/15 09:15:20;;;;;;;4.15;4.05;;;;;;;13.52;84.52;100477.84;6362474;28;20231;-69
2021/05/15 09:18:25;;;;;;;4.22;3.90;;;;;;;13.56;82.64;100483.63;6364956;28;20227;-70
2021/05/15 09:21:29;;;;;;;3.80;3.70;;;;;;;13.57;83.60;100483.41;6366312;28;20186;-69
2021/05/15 09:24:36;;;;;;;4.00;3.50;;;;;;;13.61;82.71;100476.34;6367264;28;20209;-69
2021/05/15 09:27:40;;;;;;;3.75;3.65;;;;;;;13.61;82.84;100487.31;6365984;28;20453;-69
2021/05/15 09:30:44;;;;;;;4.07;3.97;;;;;;;13.58;82.35;100487.81;6367238;28;20234;-69
2021/05/15 09:33:50;;;;;;;4.63;4.13;;;;;;;13.52;83.35;100483.31;6365831;28;20364;-69
2021/05/15 09:36:56;;;;;;;4.07;3.97;;;;;;;13.50;84.84;100488.22;6365748;28;20218;-69
2021/05/15 09:40:12;;;;;;;5.10;4.10;;;;;;;13.49;82.98;100500.25;6366672;28;20214;-70
2021/05/15 09:43:16;;;;;;;4.50;4.35;;;;;;;13.61;83.06;100492.78;6365912;28;20183;-70
2021/05/15 09:46:26;;;;;;;4.78;4.53;;;;;;;13.79;81.54;100484.38;6348471;28;20225;-70
2021/05/15 09:49:31;;;;;;;8.77;4.82;;;;;;;13.81;81.14;100487.69;6366617;28;20214;-70
2021/05/15 09:52:35;;;;;;;4.07;3.97;;;;;;;13.77;80.63;100481.03;6365033;28;20394;-71
2021/05/15 09:55:40;;;;;;;4.50;4.30;;;;;;;13.96;80.51;100486.31;6366256;28;20265;-70
2021/05/15 09:58:52;;;;;;;4.55;4.25;;;;;;;13.92;79.27;100491.44;6365308;28;20190;-70
2021/05/15 10:01:58;;;;;;;4.10;4.00;;;;;;;13.84;78.66;100496.53;6365884;28;20197;-70
2021/05/15 10:05:10;;;;;;;4.65;4.35;;;;;;;13.68;79.98;100492.66;6366314;28;20247;-70
2021/05/15 10:08:14;;;;;;;4.68;4.30;;;;;;;13.84;79.36;100502.81;6364970;28;20465;-70
2021/05/15 10:11:20;;;;;;;4.60;4.50;;;;;;;13.70;79.81;100491.34;6365057;28;20371;-70
2021/05/15 10:14:25;;;;;;;4.05;3.95;;;;;;;13.86;80.36;100500.69;6365931;28;20182;-69
2021/05/15 10:17:29;;;;;;;5.47;4.72;;;;;;;13.98;79.82;100503.34;6364925;28;20182;-69
2021/05/15 10:20:33;;;;;;;4.57;4.47;;;;;;;13.93;80.73;100500.50;6364912;28;20190;-70
2021/05/15 10:23:39;;;;;;;5.75;4.22;;;;;;;14.11;78.96;100497.53;6364604;28;20469;-70
2021/05/15 10:26:44;;;;;;;5.05;4.78;;;;;;;14.06;79.00;100511.16;6365875;28;20210;-69
2021/05/15 10:29:51;;;;;;;4.55;4.43;;;;;;;14.09;78.47;100510.69;6364375;28;20204;-70
2021/05/15 10:32:58;;;;;;;4.60;4.40;;;;;;;13.98;78.54;100492.38;6365844;28;20259;-70
2021/05/15 10:36:04;;;;;;;4.60;4.45;;;;;;;14.12;79.10;100512.94;6365577;28;20192;-71
2021/05/15 10:39:07;;;;;;;4.82;4.15;;;;;;;13.95;78.47;100520.28;6365839;28;20220;-70
2021/05/15 10:42:12;;;;;;;5.10;3.80;;;;;;;13.96;78.18;100506.34;6364341;28;20189;-70
2021/05/15 10:45:16;;;;;;;4.75;4.43;;;;;;;13.70;78.95;100518.75;6365381;28;20210;-70
2021/05/15 10:48:27;;;;;;;5.00;4.70;;;;;;;13.78;79.23;100520.25;6364834;28;20214;-71
2021/05/15 10:51:40;;;;;;;5.38;4.85;;;;;;;13.71;79.24;100520.41;6364171;28;20380;-71
2021/05/15 10:54:47;;;;;;;4.70;4.60;;;;;;;13.84;79.54;100507.50;6364014;28;20416;-71
2021/05/15 10:57:50;;;;;;;4.47;4.38;;;;;;;13.87;78.33;100512.50;6364898;28;20261;-70
2021/05/15 11:00:54;;;;;;;4.03;3.70;;;;;;;13.94;77.80;100524.13;6365007;28;20189;-71
2021/05/15 11:03:58;;;;;;;3.97;3.88;;;;;;;14.16;77.39;100516.84;6364492;28;20306;-70
2021/05/15 11:07:10;;;;;;;3.65;3.55;;;;;;;14.16;76.08;100516.84;6364907;28;20205;-70
2021/05/15 11:10:35;;;;;;;3.10;3.00;;;;;;;14.32;74.71;100513.31;6364438;28;20183;-71
2021/05/15 11:13:46;;;;;;;6.35;3.00;;;;;;;14.36;74.28;100517.19;6363644;28;20182;-70
2021/05/15 11:17:16;;;;;;;3.00;2.78;;;;;;;14.22;74.04;100511.19;6363431;28;20194;-70
2021/05/15 11:20:21;;;;;;;3.00;2.90;;;;;;;14.18;74.40;100521.00;6363160;28;20514;-69
2021/05/15 11:23:24;;;;;;;3.30;3.10;;;;;;;14.22;74.98;100529.56;6363189;28;20189;-69
2021/05/15 11:26:37;;;;;;;3.28;3.15;;;;;;;14.37;73.17;100524.38;6364642;28;20216;-70
2021/05/15 11:29:41;;;;;;;3.42;3.33;;;;;;;14.52;72.55;100521.88;6362770;28;20468;-70
2021/05/15 11:32:58;;;;;;;2.90;2.90;;;;;;;14.53;72.29;100523.53;6362650;28;20158;-70
2021/05/15 11:36:03;;;;;;;3.10;3.00;;;;;;;14.41;73.14;100517.28;6363973;28;20610;-69
2021/05/15 11:39:10;;;;;;;2.63;2.63;;;;;;;14.59;71.20;100517.03;6362785;28;20199;-70
2021/05/15 11:42:14;;;;;;;;;;;;;;;14.72;71.09;100521.34;6362461;28;20177;-69
2021/05/15 11:45:24;;;;;;;;;;;;;;;14.59;71.76;100517.03;6363128;28;20251;-70
2021/05/15 11:48:28;;;;;;;2.70;2.70;;;;;;;14.89;69.58;100524.91;6363577;28;20033;-70
2021/05/15 11:51:33;;;;;;;2.75;2.65;;;;;;;15.07;69.74;100518.28;6363345;28;20253;-70
2021/05/15 11:54:37;;;;;;;;;;;;;;;14.92;68.80;100527.97;6362740;28;20374;-71
2021/05/15 11:57:41;;;;;;;;;;;;;;;15.07;70.09;100515.53;6362756;28;19920;-70
2021/05/15 12:00:44;;;;;;;;;;;;;;;15.11;67.97;100519.44;6362570;28;20046;-70
2021/05/15 12:03:48;;;;;;;;;;;;;;;15.07;67.21;100513.63;6362610;28;19958;-70
2021/05/15 12:06:56;;;;;;;;;;;;;;;15.05;66.06;100516.63;6345225;28;19916;-70
2021/05/15 12:10:10;;;;;;;;;;;;;;;14.84;67.42;100525.66;6363472;28;19958;-70
2021/05/15 12:13:14;;;;;;;;;;;;;;;14.81;67.40;100523.44;6363816;28;19919;-69
2021/05/15 12:16:18;;;;;;;;;;;;;;;14.85;68.30;100516.34;6363596;28;19978;-69
2021/05/15 12:19:23;;;;;;;;;;;;;;;15.08;67.74;100520.78;6362716;28;20203;-70
2021/05/15 12:22:27;;;;;;;;;;;;;;;15.25;67.40;100517.97;6362970;28;19923;-71
2021/05/15 12:25:31;;;;;;;;;;;;;;;15.29;67.10;100527.38;6363720;28;19962;-70
2021/05/15 12:28:42;;;;;;;2.85;2.70;;;;;;;15.26;66.91;100522.38;6361955;28;20214;-71
2021/05/15 12:31:45;;;;;;;2.20;2.10;;;;;;;15.38;66.41;100528.59;6362688;28;20187;-70
2021/05/15 12:34:58;;;;;;;2.33;2.30;;;;;;;15.19;66.94;100517.09;6362844;28;20189;-70
2021/05/15 12:38:07;;;;;;;2.17;2.17;;;;;;;15.05;68.15;100530.34;6362638;28;20193;-70
2021/05/15 12:41:13;;;;;;;30.65;21.50;;;;;;;15.09;66.78;100508.72;6344113;28;20209;-69
2021/05/15 12:44:17;;;;;;;15.85;14.00;;;;;;;15.28;67.12;100509.25;6363088;28;20182;-71
2021/05/15 12:47:21;;;;;;;2.78;2.58;;;;;;;15.24;67.18;100508.06;6363044;28;20216;-70
2021/05/15 12:50:27;;;;;;;2.45;2.30;;;;;;;15.48;67.51;100520.50;6361868;28;20411;-70
2021/05/15 12:53:32;;;;;;;2.47;2.35;;;;;;;15.50;65.55;100518.31;6361902;28;20182;-70
2021/05/15 12:56:36;;;;;;;2.83;1.83;;;;;;;15.39;64.88;100522.00;6361621;28;20377;-70
2021/05/15 12:59:42;;;;;;;1.95;1.95;;;;;;;15.23;65.91;100522.91;6362672;28;20181;-74
2021/05/15 13:02:57;;;;;;;1.90;1.90;;;;;;;15.39;65.87;100522.00;6362671;28;20241;-71
2021/05/15 13:06:12;;;;;;;1.58;1.52;;;;;;;15.51;65.38;100520.00;6362463;28;20206;-70
2021/05/15 13:09:26;;;;;;;2.10;1.90;;;;;;;15.59;64.12;100516.78;6361077;28;20186;-71
2021/05/15 13:12:29;;;;;;;1.45;1.45;;;;;;;15.47;65.08;100518.84;6360980;28;20448;-70
2021/05/15 13:15:33;;;;;;;1.52;1.52;;;;;;;15.37;65.98;100502.19;6361599;28;20182;-70
2021/05/15 13:18:38;;;;;;;1.70;1.60;;;;;;;15.45;64.86;100515.47;6361018;28;20412;-70
2021/05/15 13:21:42;;;;;;;2.10;2.00;;;;;;;15.21;65.49;100511.31;6360978;28;20186;-70
2021/05/15 13:24:46;;;;;;;2.30;1.60;;;;;;;15.40;64.71;100520.94;6362096;28;20247;-70
2021/05/15 13:27:50;;;;;;;1.65;1.65;;;;;;;15.57;64.87;100513.44;6362007;28;20210;-71
2021/05/15 13:30:54;;;;;;;2.33;1.70;;;;;;;15.79;63.17;100511.53;6360714;28;20465;-70
2021/05/15 13:33:58;;;;;;;1.98;1.88;;;;;;;15.89;63.31;100511.63;6360681;28;20218;-70
2021/05/15 13:37:02;;;;;;;1.63;1.63;;;;;;;15.97;63.25;100519.38;6361003;28;20208;-70
2021/05/15 13:40:11;;;;;;;2.40;1.60;;;;;;;15.76;62.98;100512.03;6361248;28;20469;-70
2021/05/15 13:43:15;;;;;;;1.65;1.58;;;;;;;15.90;62.01;100517.94;6361591;28;20193;-70
2021/05/15 13:46:19;;;;;;;1.70;1.60;;;;;;;15.72;62.91;100505.38;6361381;28;20269;-69
2021/05/15 13:49:23;;;;;;;1.90;1.80;;;;;;;15.53;63.69;100515.06;6360590;28;20261;-69
2021/05/15 13:52:28;;;;;;;1.58;1.58;;;;;;;15.50;64.24;100523.81;6360270;28;20182;-70
2021/05/15 13:55:33;;;;;;;1.85;1.85;;;;;;;15.53;64.28;100526.06;6361688;28;20324;-70
2021/05/15 13:58:40;;;;;;;3.80;1.75;;;;;;;15.50;63.72;100521.91;6361793;28;20186;-70
2021/05/15 14:01:43;;;;;;;3.83;2.00;;;;;;;15.54;64.28;100527.72;6361161;28;20236;-70
2021/05/15 14:04:47;;;;;;;2.70;1.48;;;;;;;15.46;64.04;100517.16;6362156;28;20261;-69
2021/05/15 14:07:51;;;;;;;2.05;1.60;;;;;;;15.40;63.41;100512.69;6365993;28;20242;-70
2021/05/15 14:10:56;;;;;;;3.80;1.60;;;;;;;15.28;65.01;100520.22;6364715;28;20349;-69